sensor_id;sensor_type;location;lat;lon;timestamp;P1;durP1;ratioP1;P2;durP2;ratioP2
7289;SDS011;63176;52.678;13.250;2023-03-24T00:00:13;3.70;;;2.90;;
7289;SDS011;63176;52.678;13.250;2023-03-24T00:02:40;4.95;;;2.17;;
7289;SDS011;63176;52.678;13.250;2023-03-24T00:05:08;3.55;;;2.47;;
7289;SDS011;63176;52.678;13.250;2023-03-24T00:07:40;4.30;;;2.72;;
7289;SDS011;63176;52.678;13.250;2023-03-24T00:10:12;4.82;;;2.38;;
7289;SDS011;63176;52.678;13.250;2023-03-24T00:12:39;3.10;;;2.15;;
7289;SDS011;63176;52.678;13.250;2023-03-24T00:15:08;3.13;;;2.63;;
7289;SDS011;63176;52.678;13.250;2023-03-24T00:17:36;10.55;;;2.90;;
7289;SDS011;63176;52.678;13.250;2023-03-24T00:20:04;3.60;;;2.70;;
7289;SDS011;63176;52.678;13.250;2023-03-24T00:22:32;4.15;;;3.75;;
7289;SDS011;63176;52.678;13.250;2023-03-24T00:24:59;3.30;;;2.47;;
7289;SDS011;63176;52.678;13.250;2023-03-24T00:27:28;3.70;;;2.28;;
7289;SDS011;63176;52.678;13.250;2023-03-24T00:29:54;3.08;;;2.45;;
7289;SDS011;63176;52.678;13.250;2023-03-24T00:32:23;2.60;;;2.38;;
7289;SDS011;63176;52.678;13.250;2023-03-24T00:34:49;3.80;;;2.70;;
7289;SDS011;63176;52.678;13.250;2023-03-24T00:37:16;5.13;;;2.63;;
7289;SDS011;63176;52.678;13.250;2023-03-24T00:39:42;4.07;;;2.40;;
7289;SDS011;63176;52.678;13.250;2023-03-24T00:42:07;6.43;;;3.07;;
7289;SDS011;63176;52.678;13.250;2023-03-24T00:44:33;4.20;;;2.63;;
7289;SDS011;63176;52.678;13.250;2023-03-24T00:47:00;3.00;;;2.70;;
7289;SDS011;63176;52.678;13.250;2023-03-24T00:49:27;3.93;;;2.93;;
7289;SDS011;63176;52.678;13.250;2023-03-24T00:52:15;5.00;;;2.67;;
7289;SDS011;63176;52.678;13.250;2023-03-24T00:54:45;3.35;;;2.53;;
7289;SDS011;63176;52.678;13.250;2023-03-24T00:57:15;3.38;;;2.80;;
7289;SDS011;63176;52.678;13.250;2023-03-24T00:59:45;3.33;;;2.25;;
7289;SDS011;63176;52.678;13.250;2023-03-24T01:02:18;3.78;;;2.50;;
7289;SDS011;63176;52.678;13.250;2023-03-24T01:04:57;4.10;;;2.30;;
7289;SDS011;63176;52.678;13.250;2023-03-24T01:07:25;2.95;;;2.50;;
7289;SDS011;63176;52.678;13.250;2023-03-24T01:09:52;4.40;;;2.05;;
7289;SDS011;63176;52.678;13.250;2023-03-24T01:12:32;3.75;;;2.47;;
7289;SDS011;63176;52.678;13.250;2023-03-24T01:15:02;2.58;;;2.38;;
7289;SDS011;63176;52.678;13.250;2023-03-24T01:17:30;2.42;;;1.85;;
7289;SDS011;63176;52.678;13.250;2023-03-24T01:19:56;2.78;;;2.40;;
7289;SDS011;63176;52.678;13.250;2023-03-24T01:22:26;2.60;;;2.40;;
7289;SDS011;63176;52.678;13.250;2023-03-24T01:24:54;1.98;;;1.70;;
7289;SDS011;63176;52.678;13.250;2023-03-24T01:27:20;3.67;;;1.85;;
7289;SDS011;63176;52.678;13.250;2023-03-24T01:29:45;3.20;;;2.27;;
7289;SDS011;63176;52.678;13.250;2023-03-24T01:32:11;3.07;;;2.30;;
7289;SDS011;63176;52.678;13.250;2023-03-24T01:34:37;1.87;;;1.77;;
7289;SDS011;63176;52.678;13.250;2023-03-24T01:37:03;3.63;;;1.60;;
7289;SDS011;63176;52.678;13.250;2023-03-24T01:39:29;2.92;;;1.95;;
7289;SDS011;63176;52.678;13.250;2023-03-24T01:41:55;2.20;;;1.70;;
7289;SDS011;63176;52.678;13.250;2023-03-24T01:46:53;2.15;;;1.73;;
7289;SDS011;63176;52.678;13.250;2023-03-24T01:49:19;2.67;;;1.52;;
7289;SDS011;63176;52.678;13.250;2023-03-24T01:51:47;1.70;;;1.60;;
7289;SDS011;63176;52.678;13.250;2023-03-24T01:54:21;2.42;;;1.98;;
7289;SDS011;63176;52.678;13.250;2023-03-24T01:59:40;2.80;;;1.98;;
7289;SDS011;63176;52.678;13.250;2023-03-24T02:02:09;2.35;;;1.63;;
7289;SDS011;63176;52.678;13.250;2023-03-24T02:04:42;2.10;;;1.90;;
7289;SDS011;63176;52.678;13.250;2023-03-24T02:07:15;1.58;;;1.48;;
7289;SDS011;63176;52.678;13.250;2023-03-24T02:09:47;2.10;;;1.90;;
7289;SDS011;63176;52.678;13.250;2023-03-24T02:12:13;1.83;;;1.73;;
7289;SDS011;63176;52.678;13.250;2023-03-24T02:14:40;2.40;;;1.80;;
7289;SDS011;63176;52.678;13.250;2023-03-24T02:28:35;2.15;;;1.50;;
7289;SDS011;63176;52.678;13.250;2023-03-24T02:56:19;1.73;;;1.60;;
7289;SDS011;63176;52.678;13.250;2023-03-24T02:58:55;2.22;;;1.65;;
7289;SDS011;63176;52.678;13.250;2023-03-24T03:01:45;1.80;;;1.38;;
7289;SDS011;63176;52.678;13.250;2023-03-24T03:04:26;1.10;;;1.10;;
7289;SDS011;63176;52.678;13.250;2023-03-24T03:07:03;1.98;;;1.77;;
7289;SDS011;63176;52.678;13.250;2023-03-24T03:09:35;1.63;;;1.52;;
7289;SDS011;63176;52.678;13.250;2023-03-24T03:12:03;2.25;;;1.50;;
7289;SDS011;63176;52.678;13.250;2023-03-24T03:19:43;2.85;;;1.08;;
7289;SDS011;63176;52.678;13.250;2023-03-24T03:22:15;1.63;;;1.52;;
7289;SDS011;63176;52.678;13.250;2023-03-24T03:24:45;1.88;;;1.20;;
7289;SDS011;63176;52.678;13.250;2023-03-24T03:27:27;2.13;;;1.40;;
7289;SDS011;63176;52.678;13.250;2023-03-24T03:29:57;1.38;;;1.27;;
7289;SDS011;63176;52.678;13.250;2023-03-24T03:32:29;3.92;;;1.90;;
7289;SDS011;63176;52.678;13.250;2023-03-24T03:37:56;1.40;;;1.30;;
7289;SDS011;63176;52.678;13.250;2023-03-24T03:43:07;2.20;;;2.00;;
7289;SDS011;63176;52.678;13.250;2023-03-24T03:45:33;2.50;;;2.03;;
7289;SDS011;63176;52.678;13.250;2023-03-24T03:47:59;3.28;;;1.60;;
7289;SDS011;63176;52.678;13.250;2023-03-24T03:50:26;3.63;;;2.28;;
7289;SDS011;63176;52.678;13.250;2023-03-24T03:52:52;1.70;;;1.60;;
7289;SDS011;63176;52.678;13.250;2023-03-24T03:55:18;2.97;;;1.63;;
7289;SDS011;63176;52.678;13.250;2023-03-24T03:57:44;2.77;;;2.00;;
7289;SDS011;63176;52.678;13.250;2023-03-24T04:00:13;2.00;;;1.77;;
7289;SDS011;63176;52.678;13.250;2023-03-24T04:03:06;1.90;;;1.80;;
7289;SDS011;63176;52.678;13.250;2023-03-24T04:05:52;2.00;;;1.90;;
7289;SDS011;63176;52.678;13.250;2023-03-24T04:08:27;2.28;;;1.67;;
7289;SDS011;63176;52.678;13.250;2023-03-24T04:16:28;2.38;;;2.15;;
7289;SDS011;63176;52.678;13.250;2023-03-24T04:19:22;2.13;;;1.92;;
7289;SDS011;63176;52.678;13.250;2023-03-24T04:33:08;4.97;;;2.63;;
7289;SDS011;63176;52.678;13.250;2023-03-24T04:36:08;3.40;;;2.00;;
7289;SDS011;63176;52.678;13.250;2023-03-24T04:38:46;4.70;;;2.10;;
7289;SDS011;63176;52.678;13.250;2023-03-24T04:41:17;3.80;;;2.38;;
7289;SDS011;63176;52.678;13.250;2023-03-24T04:43:45;2.42;;;2.22;;
7289;SDS011;63176;52.678;13.250;2023-03-24T04:46:12;2.72;;;2.53;;
7289;SDS011;63176;52.678;13.250;2023-03-24T04:48:42;3.20;;;2.22;;
7289;SDS011;63176;52.678;13.250;2023-03-24T04:51:14;2.80;;;2.60;;
7289;SDS011;63176;52.678;13.250;2023-03-24T04:53:42;2.83;;;2.55;;
7289;SDS011;63176;52.678;13.250;2023-03-24T04:59:07;4.47;;;2.10;;
7289;SDS011;63176;52.678;13.250;2023-03-24T05:01:33;2.63;;;2.13;;
7289;SDS011;63176;52.678;13.250;2023-03-24T05:04:01;2.88;;;2.47;;
7289;SDS011;63176;52.678;13.250;2023-03-24T05:06:28;3.22;;;2.25;;
7289;SDS011;63176;52.678;13.250;2023-03-24T05:08:54;3.38;;;2.20;;
7289;SDS011;63176;52.678;13.250;2023-03-24T05:11:23;4.38;;;2.85;;
7289;SDS011;63176;52.678;13.250;2023-03-24T05:13:49;3.63;;;2.60;;
7289;SDS011;63176;52.678;13.250;2023-03-24T05:16:15;3.27;;;2.73;;
7289;SDS011;63176;52.678;13.250;2023-03-24T05:18:41;3.30;;;3.00;;
7289;SDS011;63176;52.678;13.250;2023-03-24T05:21:07;4.40;;;2.70;;
7289;SDS011;63176;52.678;13.250;2023-03-24T05:23:32;2.97;;;2.57;;
7289;SDS011;63176;52.678;13.250;2023-03-24T05:25:58;2.50;;;2.30;;
7289;SDS011;63176;52.678;13.250;2023-03-24T05:28:24;2.93;;;2.10;;
7289;SDS011;63176;52.678;13.250;2023-03-24T05:30:49;2.50;;;2.30;;
7289;SDS011;63176;52.678;13.250;2023-03-24T05:33:15;2.87;;;2.37;;
7289;SDS011;63176;52.678;13.250;2023-03-24T05:35:41;2.73;;;2.47;;
7289;SDS011;63176;52.678;13.250;2023-03-24T05:38:07;4.63;;;2.13;;
7289;SDS011;63176;52.678;13.250;2023-03-24T05:40:32;4.07;;;2.43;;
7289;SDS011;63176;52.678;13.250;2023-03-24T05:42:58;2.60;;;2.40;;
7289;SDS011;63176;52.678;13.250;2023-03-24T05:45:23;2.63;;;2.23;;
7289;SDS011;63176;52.678;13.250;2023-03-24T05:47:49;3.20;;;2.27;;
7289;SDS011;63176;52.678;13.250;2023-03-24T05:50:15;5.57;;;2.70;;
7289;SDS011;63176;52.678;13.250;2023-03-24T05:52:41;2.70;;;2.50;;
7289;SDS011;63176;52.678;13.250;2023-03-24T05:55:07;2.73;;;2.53;;
7289;SDS011;63176;52.678;13.250;2023-03-24T05:57:33;3.58;;;2.60;;
7289;SDS011;63176;52.678;13.250;2023-03-24T06:00:00;3.60;;;2.38;;
7289;SDS011;63176;52.678;13.250;2023-03-24T06:02:30;6.03;;;2.90;;
7289;SDS011;63176;52.678;13.250;2023-03-24T06:04:56;5.70;;;2.40;;
7289;SDS011;63176;52.678;13.250;2023-03-24T06:07:22;2.70;;;2.50;;
7289;SDS011;63176;52.678;13.250;2023-03-24T06:09:50;2.75;;;2.50;;
7289;SDS011;63176;52.678;13.250;2023-03-24T06:12:17;2.35;;;2.15;;
7289;SDS011;63176;52.678;13.250;2023-03-24T06:14:45;3.10;;;2.80;;
7289;SDS011;63176;52.678;13.250;2023-03-24T06:17:11;2.87;;;2.67;;
7289;SDS011;63176;52.678;13.250;2023-03-24T06:19:41;4.00;;;2.67;;
7289;SDS011;63176;52.678;13.250;2023-03-24T06:22:13;3.15;;;2.25;;
7289;SDS011;63176;52.678;13.250;2023-03-24T06:24:40;3.75;;;2.83;;
7289;SDS011;63176;52.678;13.250;2023-03-24T06:27:06;2.10;;;2.00;;
7289;SDS011;63176;52.678;13.250;2023-03-24T06:29:33;2.88;;;2.20;;
7289;SDS011;63176;52.678;13.250;2023-03-24T06:32:00;2.10;;;1.98;;
7289;SDS011;63176;52.678;13.250;2023-03-24T06:34:26;2.83;;;2.40;;
7289;SDS011;63176;52.678;13.250;2023-03-24T06:36:53;2.50;;;2.30;;
7289;SDS011;63176;52.678;13.250;2023-03-24T06:39:19;3.30;;;2.65;;
7289;SDS011;63176;52.678;13.250;2023-03-24T06:41:45;2.43;;;1.97;;
7289;SDS011;63176;52.678;13.250;2023-03-24T06:44:11;4.97;;;2.17;;
7289;SDS011;63176;52.678;13.250;2023-03-24T06:46:37;8.57;;;2.77;;
7289;SDS011;63176;52.678;13.250;2023-03-24T06:49:02;4.80;;;2.97;;
7289;SDS011;63176;52.678;13.250;2023-03-24T06:51:28;4.97;;;2.80;;
7289;SDS011;63176;52.678;13.250;2023-03-24T06:53:54;2.37;;;2.13;;
7289;SDS011;63176;52.678;13.250;2023-03-24T06:56:19;2.97;;;2.43;;
7289;SDS011;63176;52.678;13.250;2023-03-24T06:58:45;3.40;;;2.20;;
7289;SDS011;63176;52.678;13.250;2023-03-24T07:01:12;3.22;;;2.20;;
7289;SDS011;63176;52.678;13.250;2023-03-24T07:03:39;6.13;;;2.60;;
7289;SDS011;63176;52.678;13.250;2023-03-24T07:06:06;2.53;;;2.15;;
7289;SDS011;63176;52.678;13.250;2023-03-24T07:08:33;3.80;;;2.40;;
7289;SDS011;63176;52.678;13.250;2023-03-24T07:10:59;4.18;;;2.60;;
7289;SDS011;63176;52.678;13.250;2023-03-24T07:13:26;3.53;;;2.45;;
7289;SDS011;63176;52.678;13.250;2023-03-24T07:15:52;4.20;;;2.30;;
7289;SDS011;63176;52.678;13.250;2023-03-24T07:18:18;4.63;;;2.90;;
7289;SDS011;63176;52.678;13.250;2023-03-24T07:20:44;7.57;;;2.70;;
7289;SDS011;63176;52.678;13.250;2023-03-24T07:23:10;6.13;;;3.13;;
7289;SDS011;63176;52.678;13.250;2023-03-24T07:25:38;5.13;;;3.22;;
7289;SDS011;63176;52.678;13.250;2023-03-24T07:28:04;4.35;;;3.05;;
7289;SDS011;63176;52.678;13.250;2023-03-24T07:30:32;5.03;;;2.70;;
7289;SDS011;63176;52.678;13.250;2023-03-24T07:32:59;3.45;;;2.50;;
7289;SDS011;63176;52.678;13.250;2023-03-24T07:35:26;4.25;;;3.00;;
7289;SDS011;63176;52.678;13.250;2023-03-24T07:37:51;2.00;;;1.80;;
7289;SDS011;63176;52.678;13.250;2023-03-24T07:40:17;2.80;;;2.10;;
7289;SDS011;63176;52.678;13.250;2023-03-24T07:42:42;2.30;;;2.00;;
7289;SDS011;63176;52.678;13.250;2023-03-24T07:45:09;3.00;;;2.43;;
7289;SDS011;63176;52.678;13.250;2023-03-24T07:47:37;4.45;;;2.63;;
7289;SDS011;63176;52.678;13.250;2023-03-24T07:50:06;3.88;;;2.45;;
7289;SDS011;63176;52.678;13.250;2023-03-24T07:52:37;2.92;;;2.63;;
7289;SDS011;63176;52.678;13.250;2023-03-24T07:55:05;2.33;;;2.13;;
7289;SDS011;63176;52.678;13.250;2023-03-24T07:57:32;1.93;;;1.70;;
7289;SDS011;63176;52.678;13.250;2023-03-24T08:00:02;2.78;;;2.38;;
7289;SDS011;63176;52.678;13.250;2023-03-24T08:02:42;2.70;;;1.98;;
7289;SDS011;63176;52.678;13.250;2023-03-24T08:05:09;2.90;;;2.27;;
7289;SDS011;63176;52.678;13.250;2023-03-24T08:07:38;2.97;;;2.67;;
7289;SDS011;63176;52.678;13.250;2023-03-24T08:10:07;3.00;;;2.08;;
7289;SDS011;63176;52.678;13.250;2023-03-24T08:12:34;2.35;;;2.10;;
7289;SDS011;63176;52.678;13.250;2023-03-24T08:14:59;2.80;;;2.40;;
7289;SDS011;63176;52.678;13.250;2023-03-24T08:17:25;3.10;;;2.43;;
7289;SDS011;63176;52.678;13.250;2023-03-24T08:19:51;4.87;;;2.67;;
7289;SDS011;63176;52.678;13.250;2023-03-24T08:22:16;4.57;;;2.70;;
7289;SDS011;63176;52.678;13.250;2023-03-24T08:24:42;3.57;;;2.27;;
7289;SDS011;63176;52.678;13.250;2023-03-24T08:27:07;3.80;;;2.20;;
7289;SDS011;63176;52.678;13.250;2023-03-24T08:29:34;3.42;;;2.67;;
7289;SDS011;63176;52.678;13.250;2023-03-24T08:32:00;3.13;;;2.40;;
7289;SDS011;63176;52.678;13.250;2023-03-24T08:34:26;3.73;;;2.53;;
7289;SDS011;63176;52.678;13.250;2023-03-24T08:36:52;4.10;;;1.65;;
7289;SDS011;63176;52.678;13.250;2023-03-24T08:39:17;2.90;;;2.03;;
7289;SDS011;63176;52.678;13.250;2023-03-24T08:41:44;5.05;;;2.50;;
7289;SDS011;63176;52.678;13.250;2023-03-24T08:44:10;2.40;;;2.10;;
7289;SDS011;63176;52.678;13.250;2023-03-24T08:46:36;2.10;;;1.80;;
7289;SDS011;63176;52.678;13.250;2023-03-24T08:49:02;3.07;;;2.00;;
7289;SDS011;63176;52.678;13.250;2023-03-24T08:51:28;4.35;;;2.20;;
7289;SDS011;63176;52.678;13.250;2023-03-24T08:53:54;2.17;;;1.87;;
7289;SDS011;63176;52.678;13.250;2023-03-24T08:56:19;6.13;;;2.87;;
7289;SDS011;63176;52.678;13.250;2023-03-24T08:58:46;2.30;;;2.10;;
7289;SDS011;63176;52.678;13.250;2023-03-24T09:01:13;1.90;;;1.77;;
7289;SDS011;63176;52.678;13.250;2023-03-24T09:03:39;3.53;;;2.17;;
7289;SDS011;63176;52.678;13.250;2023-03-24T09:06:05;2.93;;;2.30;;
7289;SDS011;63176;52.678;13.250;2023-03-24T09:08:31;2.58;;;2.30;;
7289;SDS011;63176;52.678;13.250;2023-03-24T09:10:57;1.90;;;1.70;;
7289;SDS011;63176;52.678;13.250;2023-03-24T09:13:23;2.50;;;2.30;;
7289;SDS011;63176;52.678;13.250;2023-03-24T09:15:49;2.13;;;1.93;;
7289;SDS011;63176;52.678;13.250;2023-03-24T09:18:17;3.28;;;2.28;;
7289;SDS011;63176;52.678;13.250;2023-03-24T09:20:44;4.53;;;2.30;;
7289;SDS011;63176;52.678;13.250;2023-03-24T09:23:10;3.30;;;2.40;;
7289;SDS011;63176;52.678;13.250;2023-03-24T09:25:36;2.00;;;1.83;;
7289;SDS011;63176;52.678;13.250;2023-03-24T09:28:02;2.40;;;2.20;;
7289;SDS011;63176;52.678;13.250;2023-03-24T09:30:28;3.03;;;2.13;;
7289;SDS011;63176;52.678;13.250;2023-03-24T09:32:53;2.50;;;2.07;;
7289;SDS011;63176;52.678;13.250;2023-03-24T09:35:23;2.47;;;2.27;;
7289;SDS011;63176;52.678;13.250;2023-03-24T09:37:51;2.70;;;2.33;;
7289;SDS011;63176;52.678;13.250;2023-03-24T09:40:37;3.30;;;2.30;;
7289;SDS011;63176;52.678;13.250;2023-03-24T09:43:48;3.50;;;2.07;;
7289;SDS011;63176;52.678;13.250;2023-03-24T09:46:03;3.50;;;2.47;;
7289;SDS011;63176;52.678;13.250;2023-03-24T09:51:08;2.20;;;2.00;;
7289;SDS011;63176;52.678;13.250;2023-03-24T09:56:29;3.00;;;2.50;;
7289;SDS011;63176;52.678;13.250;2023-03-24T10:01:37;10.30;;;2.50;;
7289;SDS011;63176;52.678;13.250;2023-03-24T10:04:03;3.20;;;2.60;;
7289;SDS011;63176;52.678;13.250;2023-03-24T10:06:39;3.83;;;2.00;;
7289;SDS011;63176;52.678;13.250;2023-03-24T10:09:25;2.57;;;1.90;;
7289;SDS011;63176;52.678;13.250;2023-03-24T10:15:06;1.77;;;1.67;;
7289;SDS011;63176;52.678;13.250;2023-03-24T10:17:42;3.57;;;1.87;;
7289;SDS011;63176;52.678;13.250;2023-03-24T10:20:29;1.93;;;1.80;;
7289;SDS011;63176;52.678;13.250;2023-03-24T10:23:02;1.80;;;1.70;;
7289;SDS011;63176;52.678;13.250;2023-03-24T10:25:55;3.67;;;1.70;;
7289;SDS011;63176;52.678;13.250;2023-03-24T10:31:32;1.77;;;1.43;;
7289;SDS011;63176;52.678;13.250;2023-03-24T10:34:00;2.20;;;1.43;;
7289;SDS011;63176;52.678;13.250;2023-03-24T10:36:26;2.93;;;1.97;;
7289;SDS011;63176;52.678;13.250;2023-03-24T10:38:53;2.70;;;1.53;;
7289;SDS011;63176;52.678;13.250;2023-03-24T10:41:23;2.20;;;1.70;;
7289;SDS011;63176;52.678;13.250;2023-03-24T10:43:51;2.40;;;1.40;;
7289;SDS011;63176;52.678;13.250;2023-03-24T10:46:21;1.70;;;1.33;;
7289;SDS011;63176;52.678;13.250;2023-03-24T10:48:52;1.23;;;1.20;;
7289;SDS011;63176;52.678;13.250;2023-03-24T10:51:36;1.67;;;1.30;;
7289;SDS011;63176;52.678;13.250;2023-03-24T10:54:09;2.10;;;1.40;;
7289;SDS011;63176;52.678;13.250;2023-03-24T10:56:47;3.13;;;1.67;;
7289;SDS011;63176;52.678;13.250;2023-03-24T10:59:32;1.67;;;1.53;;
7289;SDS011;63176;52.678;13.250;2023-03-24T11:04:38;1.37;;;1.10;;
7289;SDS011;63176;52.678;13.250;2023-03-24T11:09:47;2.13;;;1.53;;
7289;SDS011;63176;52.678;13.250;2023-03-24T11:12:40;1.53;;;1.00;;
7289;SDS011;63176;52.678;13.250;2023-03-24T11:15:21;1.73;;;1.23;;
7289;SDS011;63176;52.678;13.250;2023-03-24T11:18:00;1.30;;;1.20;;
7289;SDS011;63176;52.678;13.250;2023-03-24T11:25:35;1.37;;;1.00;;
7289;SDS011;63176;52.678;13.250;2023-03-24T11:28:13;1.27;;;1.03;;
7289;SDS011;63176;52.678;13.250;2023-03-24T11:30:45;0.90;;;0.90;;
7289;SDS011;63176;52.678;13.250;2023-03-24T11:33:32;0.87;;;0.83;;
7289;SDS011;63176;52.678;13.250;2023-03-24T11:36:35;1.53;;;1.00;;
7289;SDS011;63176;52.678;13.250;2023-03-24T11:39:20;1.83;;;1.10;;
7289;SDS011;63176;52.678;13.250;2023-03-24T11:44:51;1.47;;;0.80;;
7289;SDS011;63176;52.678;13.250;2023-03-24T11:47:23;2.57;;;0.80;;
7289;SDS011;63176;52.678;13.250;2023-03-24T11:50:00;1.00;;;0.90;;
7289;SDS011;63176;52.678;13.250;2023-03-24T11:52:33;1.23;;;0.73;;
7289;SDS011;63176;52.678;13.250;2023-03-24T11:55:42;1.10;;;0.90;;
7289;SDS011;63176;52.678;13.250;2023-03-24T11:58:16;1.33;;;0.77;;
7289;SDS011;63176;52.678;13.250;2023-03-24T12:01:10;0.70;;;0.70;;
7289;SDS011;63176;52.678;13.250;2023-03-24T12:09:31;1.13;;;1.03;;
7289;SDS011;63176;52.678;13.250;2023-03-24T12:12:14;1.23;;;0.70;;
7289;SDS011;63176;52.678;13.250;2023-03-24T12:17:43;0.60;;;0.60;;
7289;SDS011;63176;52.678;13.250;2023-03-24T12:20:27;0.70;;;0.60;;
7289;SDS011;63176;52.678;13.250;2023-03-24T12:23:06;1.07;;;0.73;;
7289;SDS011;63176;52.678;13.250;2023-03-24T12:25:58;0.80;;;0.60;;
7289;SDS011;63176;52.678;13.250;2023-03-24T12:32:02;1.27;;;0.60;;
7289;SDS011;63176;52.678;13.250;2023-03-24T12:34:44;1.13;;;0.80;;
7289;SDS011;63176;52.678;13.250;2023-03-24T12:37:20;0.90;;;0.70;;
7289;SDS011;63176;52.678;13.250;2023-03-24T12:42:44;0.70;;;0.70;;
7289;SDS011;63176;52.678;13.250;2023-03-24T12:50:37;0.80;;;0.80;;
7289;SDS011;63176;52.678;13.250;2023-03-24T12:56:01;1.63;;;0.63;;
7289;SDS011;63176;52.678;13.250;2023-03-24T12:58:50;0.60;;;0.60;;
7289;SDS011;63176;52.678;13.250;2023-03-24T13:04:15;0.60;;;0.50;;
7289;SDS011;63176;52.678;13.250;2023-03-24T13:06:52;0.60;;;0.50;;
7289;SDS011;63176;52.678;13.250;2023-03-24T13:12:15;0.60;;;0.50;;
7289;SDS011;63176;52.678;13.250;2023-03-24T13:17:12;0.60;;;0.50;;
7289;SDS011;63176;52.678;13.250;2023-03-24T13:19:54;0.97;;;0.50;;
7289;SDS011;63176;52.678;13.250;2023-03-24T13:22:21;0.87;;;0.60;;
7289;SDS011;63176;52.678;13.250;2023-03-24T13:24:50;1.00;;;0.90;;
7289;SDS011;63176;52.678;13.250;2023-03-24T13:32:50;1.47;;;0.43;;
7289;SDS011;63176;52.678;13.250;2023-03-24T13:37:51;0.90;;;0.60;;
7289;SDS011;63176;52.678;13.250;2023-03-24T13:40:24;3.23;;;0.60;;
7289;SDS011;63176;52.678;13.250;2023-03-24T13:42:56;2.40;;;0.70;;
7289;SDS011;63176;52.678;13.250;2023-03-24T13:53:15;0.87;;;0.60;;
7289;SDS011;63176;52.678;13.250;2023-03-24T13:56:00;0.80;;;0.53;;
7289;SDS011;63176;52.678;13.250;2023-03-24T13:58:43;2.20;;;0.70;;
7289;SDS011;63176;52.678;13.250;2023-03-24T14:03:38;3.17;;;0.60;;
7289;SDS011;63176;52.678;13.250;2023-03-24T14:06:07;1.17;;;0.53;;
7289;SDS011;63176;52.678;13.250;2023-03-24T14:14:03;1.70;;;0.50;;
7289;SDS011;63176;52.678;13.250;2023-03-24T14:21:41;0.93;;;0.53;;
7289;SDS011;63176;52.678;13.250;2023-03-24T14:24:15;1.10;;;0.67;;
7289;SDS011;63176;52.678;13.250;2023-03-24T14:26:47;3.83;;;0.53;;
7289;SDS011;63176;52.678;13.250;2023-03-24T14:32:16;1.10;;;0.60;;
7289;SDS011;63176;52.678;13.250;2023-03-24T14:34:56;1.60;;;0.70;;
7289;SDS011;63176;52.678;13.250;2023-03-24T14:37:24;0.73;;;0.60;;
7289;SDS011;63176;52.678;13.250;2023-03-24T14:39:52;1.67;;;0.70;;
7289;SDS011;63176;52.678;13.250;2023-03-24T14:45:05;1.73;;;0.40;;
7289;SDS011;63176;52.678;13.250;2023-03-24T14:47:58;3.70;;;0.70;;
7289;SDS011;63176;52.678;13.250;2023-03-24T14:50:25;3.70;;;1.53;;
7289;SDS011;63176;52.678;13.250;2023-03-24T14:52:53;2.60;;;1.30;;
7289;SDS011;63176;52.678;13.250;2023-03-24T14:55:23;2.63;;;1.00;;
7289;SDS011;63176;52.678;13.250;2023-03-24T14:57:52;0.70;;;0.60;;
7289;SDS011;63176;52.678;13.250;2023-03-24T15:00:43;1.00;;;0.73;;
7289;SDS011;63176;52.678;13.250;2023-03-24T15:06:17;2.40;;;0.77;;
7289;SDS011;63176;52.678;13.250;2023-03-24T15:08:51;1.30;;;0.93;;
7289;SDS011;63176;52.678;13.250;2023-03-24T15:11:29;2.13;;;0.90;;
7289;SDS011;63176;52.678;13.250;2023-03-24T15:13:57;5.20;;;0.77;;
7289;SDS011;63176;52.678;13.250;2023-03-24T15:16:28;1.27;;;0.90;;
7289;SDS011;63176;52.678;13.250;2023-03-24T15:19:07;4.23;;;0.80;;
7289;SDS011;63176;52.678;13.250;2023-03-24T15:21:36;3.73;;;0.73;;
7289;SDS011;63176;52.678;13.250;2023-03-24T15:24:22;3.10;;;0.90;;
7289;SDS011;63176;52.678;13.250;2023-03-24T15:29:31;3.13;;;0.90;;
7289;SDS011;63176;52.678;13.250;2023-03-24T15:31:57;1.63;;;0.73;;
7289;SDS011;63176;52.678;13.250;2023-03-24T15:34:30;1.47;;;0.87;;
7289;SDS011;63176;52.678;13.250;2023-03-24T15:37:06;1.70;;;0.73;;
7289;SDS011;63176;52.678;13.250;2023-03-24T15:39:51;1.73;;;0.80;;
7289;SDS011;63176;52.678;13.250;2023-03-24T15:42:22;4.43;;;0.70;;
7289;SDS011;63176;52.678;13.250;2023-03-24T15:44:49;2.83;;;0.80;;
7289;SDS011;63176;52.678;13.250;2023-03-24T15:47:23;6.20;;;1.13;;
7289;SDS011;63176;52.678;13.250;2023-03-24T15:49:54;5.00;;;1.10;;
7289;SDS011;63176;52.678;13.250;2023-03-24T15:52:31;1.00;;;0.90;;
7289;SDS011;63176;52.678;13.250;2023-03-24T15:55:07;1.07;;;0.73;;
7289;SDS011;63176;52.678;13.250;2023-03-24T15:57:52;9.10;;;0.93;;
7289;SDS011;63176;52.678;13.250;2023-03-24T16:00:23;3.80;;;1.20;;
7289;SDS011;63176;52.678;13.250;2023-03-24T16:02:55;5.83;;;1.57;;
7289;SDS011;63176;52.678;13.250;2023-03-24T16:05:24;3.83;;;0.90;;
7289;SDS011;63176;52.678;13.250;2023-03-24T16:07:58;1.53;;;0.60;;
7289;SDS011;63176;52.678;13.250;2023-03-24T16:10:29;3.43;;;0.90;;
7289;SDS011;63176;52.678;13.250;2023-03-24T16:12:57;2.17;;;0.70;;
7289;SDS011;63176;52.678;13.250;2023-03-24T16:15:35;1.97;;;1.30;;
7289;SDS011;63176;52.678;13.250;2023-03-24T16:18:01;1.53;;;0.70;;
7289;SDS011;63176;52.678;13.250;2023-03-24T16:20:27;1.43;;;0.83;;
7289;SDS011;63176;52.678;13.250;2023-03-24T16:22:53;1.70;;;0.97;;
7289;SDS011;63176;52.678;13.250;2023-03-24T16:25:21;2.10;;;0.87;;
7289;SDS011;63176;52.678;13.250;2023-03-24T16:27:47;1.90;;;0.87;;
7289;SDS011;63176;52.678;13.250;2023-03-24T16:30:16;2.90;;;1.00;;
7289;SDS011;63176;52.678;13.250;2023-03-24T16:32:45;1.63;;;0.93;;
7289;SDS011;63176;52.678;13.250;2023-03-24T16:35:11;4.80;;;1.00;;
7289;SDS011;63176;52.678;13.250;2023-03-24T16:37:36;3.27;;;1.13;;
7289;SDS011;63176;52.678;13.250;2023-03-24T16:40:05;1.43;;;0.90;;
7289;SDS011;63176;52.678;13.250;2023-03-24T16:42:49;1.60;;;1.17;;
7289;SDS011;63176;52.678;13.250;2023-03-24T16:45:14;4.53;;;1.33;;
7289;SDS011;63176;52.678;13.250;2023-03-24T16:47:40;1.30;;;1.20;;
7289;SDS011;63176;52.678;13.250;2023-03-24T16:50:23;1.90;;;1.10;;
7289;SDS011;63176;52.678;13.250;2023-03-24T16:52:52;2.30;;;1.37;;
7289;SDS011;63176;52.678;13.250;2023-03-24T16:55:18;4.60;;;1.47;;
7289;SDS011;63176;52.678;13.250;2023-03-24T16:57:44;10.30;;;1.67;;
7289;SDS011;63176;52.678;13.250;2023-03-24T17:00:09;1.87;;;1.43;;
7289;SDS011;63176;52.678;13.250;2023-03-24T17:02:36;3.97;;;2.40;;
7289;SDS011;63176;52.678;13.250;2023-03-24T17:05:13;4.37;;;2.03;;
7289;SDS011;63176;52.678;13.250;2023-03-24T17:07:46;3.23;;;1.00;;
7289;SDS011;63176;52.678;13.250;2023-03-24T17:10:12;1.93;;;1.30;;
7289;SDS011;63176;52.678;13.250;2023-03-24T17:12:38;2.83;;;0.87;;
7289;SDS011;63176;52.678;13.250;2023-03-24T17:15:04;5.67;;;1.07;;
7289;SDS011;63176;52.678;13.250;2023-03-24T17:17:31;2.97;;;1.60;;
7289;SDS011;63176;52.678;13.250;2023-03-24T17:19:56;2.63;;;1.80;;
7289;SDS011;63176;52.678;13.250;2023-03-24T17:22:22;4.40;;;2.20;;
7289;SDS011;63176;52.678;13.250;2023-03-24T17:24:51;9.63;;;3.23;;
7289;SDS011;63176;52.678;13.250;2023-03-24T17:27:22;7.80;;;3.23;;
7289;SDS011;63176;52.678;13.250;2023-03-24T17:29:48;3.43;;;2.50;;
7289;SDS011;63176;52.678;13.250;2023-03-24T17:32:14;8.93;;;3.73;;
7289;SDS011;63176;52.678;13.250;2023-03-24T17:34:43;7.87;;;3.37;;
7289;SDS011;63176;52.678;13.250;2023-03-24T17:37:09;16.90;;;5.60;;
7289;SDS011;63176;52.678;13.250;2023-03-24T17:39:35;21.10;;;7.53;;
7289;SDS011;63176;52.678;13.250;2023-03-24T17:42:01;28.20;;;12.33;;
7289;SDS011;63176;52.678;13.250;2023-03-24T17:44:28;27.50;;;8.20;;
7289;SDS011;63176;52.678;13.250;2023-03-24T17:46:53;15.97;;;5.43;;
7289;SDS011;63176;52.678;13.250;2023-03-24T17:49:19;3.53;;;2.70;;
7289;SDS011;63176;52.678;13.250;2023-03-24T17:51:45;6.50;;;2.83;;
7289;SDS011;63176;52.678;13.250;2023-03-24T17:54:11;3.63;;;2.50;;
7289;SDS011;63176;52.678;13.250;2023-03-24T17:56:37;7.50;;;3.00;;
7289;SDS011;63176;52.678;13.250;2023-03-24T17:59:03;6.28;;;2.10;;